Time;durP1;ratioP1;P1;durP2;ratioP2;P2;SDS_P1;SDS_P2;PMS_P1;PMS_P2;Temp;Humidity;BMP_temperature;BMP_pressure;BME280_temperature;BME280_humidity;BME280_pressure;Samples;Min_cycle;Max_cycle;Signal;HPM_P1;HPM_P2
2021/12/04 00:00:52;;;;;;;18.93;7.57;;;;;;;2.27;57.75;100358.97;5493079;32;34187;-68
2021/12/04 00:03:56;;;;;;;18.15;7.70;;;;;;;2.41;57.39;100357.12;5478311;32;33040;-68
2021/12/04 00:06:59;;;;;;;19.50;8.30;;;;;;;2.29;57.46;100352.03;5504841;32;33920;-68
2021/12/04 00:10:03;;;;;;;16.30;7.57;;;;;;;2.48;56.78;100352.78;5464134;32;32613;-68
2021/12/04 00:13:06;;;;;;;19.73;7.47;;;;;;;1.21;60.66;100358.47;5486559;32;35523;-67
2021/12/04 00:16:09;;;;;;;17.43;7.93;;;;;;;1.99;59.07;100340.06;5478615;32;34691;-68
2021/12/04 00:19:11;;;;;;;16.07;7.37;;;;;;;2.48;57.51;100325.09;5482860;32;33995;-68
2021/12/04 00:22:15;;;;;;;14.75;7.22;;;;;;;2.78;55.97;100324.00;5482976;32;35091;-67
2021/12/04 00:25:18;;;;;;;17.52;8.43;;;;;;;2.00;59.05;100329.72;5491098;32;35446;-67
2021/12/04 00:28:21;;;;;;;18.73;8.27;;;;;;;3.44;54.55;100324.22;5480434;32;35491;-67
2021/12/04 00:31:24;;;;;;;19.33;8.57;;;;;;;3.05;55.65;100327.22;5485053;32;34537;-67
2021/12/04 00:34:28;;;;;;;20.30;8.27;;;;;;;2.89;56.46;100316.97;5502011;32;36007;-69
2021/12/04 00:38:01;;;;;;;16.73;8.07;;;;;;;3.92;53.07;100315.84;5492817;32;35605;-67
2021/12/04 00:51:09;;;;;;;19.87;7.80;;;;;;;3.86;52.45;100319.38;5498233;32;32821;-69
2021/12/04 00:54:12;;;;;;;15.67;7.83;;;;;;;3.63;52.67;100311.87;5480767;32;33230;-68
2021/12/04 00:57:15;;;;;;;18.77;8.10;;;;;;;2.64;55.82;100318.94;5497560;32;33808;-67
2021/12/04 01:00:17;;;;;;;19.20;8.57;;;;;;;1.93;58.84;100309.00;5499953;32;31537;-68
2021/12/04 01:03:19;;;;;;;17.30;8.20;;;;;;;1.71;59.69;100323.78;5477549;32;34188;-67
2021/12/04 01:06:22;;;;;;;18.73;8.40;;;;;;;1.54;60.22;100331.63;5502492;32;35147;-67
2021/12/04 01:09:25;;;;;;;17.13;8.60;;;;;;;2.27;57.94;100312.28;5478651;32;34210;-67
2021/12/04 01:12:28;;;;;;;18.85;9.18;;;;;;;1.76;59.85;100307.38;5457275;32;34015;-67
2021/12/04 01:15:31;;;;;;;20.93;9.07;;;;;;;1.36;61.98;100319.59;5483809;32;32745;-67
2021/12/04 01:18:34;;;;;;;18.37;9.23;;;;;;;2.10;59.69;100323.59;5476971;32;34772;-68
2021/12/04 01:21:36;;;;;;;21.53;9.17;;;;;;;2.41;57.44;100326.00;5473703;32;34861;-69
2021/12/04 01:24:38;;;;;;;18.23;9.30;;;;;;;2.16;58.52;100330.47;5499071;32;33976;-67
2021/12/04 01:27:42;;;;;;;18.37;8.73;;;;;;;1.63;60.89;100334.19;5459748;32;34109;-67
2021/12/04 01:30:45;;;;;;;19.37;9.60;;;;;;;1.44;61.80;100335.13;5465522;32;35687;-68
2021/12/04 01:33:48;;;;;;;19.98;9.75;;;;;;;1.26;62.13;100331.69;5475909;32;34688;-67
2021/12/04 01:36:50;;;;;;;18.53;8.67;;;;;;;2.50;58.75;100318.16;5490102;32;34321;-68
2021/12/04 01:39:53;;;;;;;19.63;9.47;;;;;;;2.84;57.17;100316.16;5492108;32;33938;-67
2021/12/04 01:42:56;;;;;;;18.50;9.53;;;;;;;1.90;59.93;100322.84;5486508;32;34434;-67
2021/12/04 01:45:59;;;;;;;21.35;9.43;;;;;;;1.11;62.53;100323.97;5449173;32;34522;-67
2021/12/04 01:49:02;;;;;;;23.37;8.83;;;;;;;1.35;62.35;100317.84;5482339;32;33922;-67
2021/12/04 01:52:06;;;;;;;20.30;10.23;;;;;;;2.25;59.13;100314.00;5470858;32;34609;-67
2021/12/04 01:55:09;;;;;;;21.27;9.77;;;;;;;1.24;61.98;100328.25;5477237;32;33897;-68
2021/12/04 01:58:11;;;;;;;20.23;9.07;;;;;;;1.65;62.16;100316.91;5484023;32;34104;-69
2021/12/04 02:01:14;;;;;;;20.60;9.73;;;;;;;1.22;62.35;100311.84;5479928;32;35726;-67
2021/12/04 02:04:16;;;;;;;21.90;10.70;;;;;;;1.12;62.98;100307.56;5497804;32;34007;-68
2021/12/04 02:07:20;;;;;;;23.63;11.63;;;;;;;1.23;61.92;100307.56;5476836;32;33186;-67
2021/12/04 02:10:23;;;;;;;26.33;12.73;;;;;;;1.33;61.26;100307.50;5497966;32;34760;-68
2021/12/04 02:13:26;;;;;;;27.10;13.10;;;;;;;1.73;60.18;100302.19;5494607;32;34636;-67
2021/12/04 02:16:28;;;;;;;25.75;12.37;;;;;;;1.19;61.73;100306.69;5477758;32;35150;-68
2021/12/04 02:19:32;;;;;;;28.87;13.02;;;;;;;1.55;61.14;100303.12;5484303;32;34963;-68
2021/12/04 02:22:35;;;;;;;30.95;14.18;;;;;;;1.89;59.17;100295.22;5477105;32;34698;-67
2021/12/04 02:25:38;;;;;;;25.97;13.50;;;;;;;0.50;63.98;100304.16;5498745;32;34447;-68
2021/12/04 02:28:45;;;;;;;27.30;13.05;;;;;;;0.88;62.38;100302.44;5468351;32;34530;-67
2021/12/04 02:31:55;;;;;;;29.80;13.90;;;;;;;1.98;59.30;100282.19;5484192;32;34745;-68
2021/12/04 02:34:58;;;;;;;26.80;13.47;;;;;;;2.37;57.16;100287.97;5483438;32;34279;-68
2021/12/04 02:38:01;;;;;;;30.10;12.93;;;;;;;1.66;59.16;100290.12;5468380;32;34800;-67
2021/12/04 02:41:04;;;;;;;26.40;13.30;;;;;;;1.51;59.83;100283.28;5486334;32;33813;-67
2021/12/04 02:44:07;;;;;;;29.12;12.85;;;;;;;0.87;62.38;100283.44;5477071;32;34619;-68
2021/12/04 02:47:09;;;;;;;28.83;13.43;;;;;;;1.35;60.78;100277.31;5468025;32;34046;-68
2021/12/04 02:50:13;;;;;;;29.00;14.20;;;;;;;1.17;61.32;100285.13;5489637;32;34320;-67
2021/12/04 02:53:17;;;;;;;29.52;14.38;;;;;;;0.79;63.45;100278.28;5493463;32;33967;-67
2021/12/04 02:56:20;;;;;;;31.90;15.05;;;;;;;1.01;62.85;100279.12;5499204;32;34296;-67
2021/12/04 02:59:24;;;;;;;27.80;14.27;;;;;;;0.87;63.29;100269.66;5464566;32;33985;-67
2021/12/04 03:02:27;;;;;;;27.13;13.62;;;;;;;0.42;64.80;100261.94;5499006;32;32961;-68
2021/12/04 03:05:31;;;;;;;31.30;12.48;;;;;;;0.85;64.00;100268.81;5489453;32;34625;-66
2021/12/04 03:08:33;;;;;;;29.02;12.18;;;;;;;0.95;62.45;100266.19;5482794;32;32763;-68
2021/12/04 03:11:36;;;;;;;28.83;13.47;;;;;;;1.49;61.62;100266.03;5483005;32;34414;-69
2021/12/04 03:14:39;;;;;;;23.57;12.13;;;;;;;2.16;58.97;100253.56;5478130;32;34801;-68
2021/12/04 03:17:42;;;;;;;28.50;12.80;;;;;;;1.52;60.39;100247.88;5494291;32;33298;-67
2021/12/04 03:20:46;;;;;;;26.55;13.10;;;;;;;1.06;62.21;100258.41;5479698;32;33564;-67
2021/12/04 03:24:09;;;;;;;32.53;13.77;;;;;;;0.94;62.61;100261.88;5484564;32;34425;-68
2021/12/04 03:27:13;;;;;;;31.23;14.03;;;;;;;0.53;64.79;100267.97;5469114;32;35926;-68
2021/12/04 03:30:36;;;;;;;26.37;13.10;;;;;;;0.95;63.87;100265.31;5479830;32;34509;-68
2021/12/04 03:40:57;;;;;;;70.13;41.77;;;;;;;0.80;64.02;100237.75;5499891;32;34015;-68
2021/12/04 03:43:38;;;;;;;35.47;16.07;;;;;;;0.71;62.80;100230.00;5494004;32;33091;-67
2021/12/04 03:46:40;;;;;;;32.47;16.12;;;;;;;1.04;62.80;100234.25;5474744;32;34940;-68
2021/12/04 03:49:43;;;;;;;28.87;15.02;;;;;;;0.20;65.74;100227.47;5475919;32;34827;-68
2021/12/04 03:52:46;;;;;;;29.93;14.67;;;;;;;0.23;65.95;100211.94;5469490;32;35191;-67
2021/12/04 03:55:50;;;;;;;29.65;15.25;;;;;;;0.76;63.61;100207.56;5499267;32;34066;-67
2021/12/04 03:58:52;;;;;;;28.08;13.38;;;;;;;1.19;61.41;100194.50;5477234;32;35048;-67
2021/12/04 04:01:56;;;;;;;31.80;15.20;;;;;;;0.48;65.36;100199.87;5497549;32;34443;-67
2021/12/04 04:05:00;;;;;;;31.60;14.63;;;;;;;0.54;64.90;100202.44;5470194;32;32895;-68
2021/12/04 04:08:02;;;;;;;28.45;14.60;;;;;;;-0.17;67.60;100205.03;5466246;32;34243;-69
2021/12/04 04:11:05;;;;;;;27.63;15.63;;;;;;;0.77;64.79;100205.00;5486688;32;33103;-68
2021/12/04 04:14:09;;;;;;;31.62;14.40;;;;;;;0.46;65.00;100195.56;5466160;32;34517;-67
2021/12/04 04:17:12;;;;;;;33.20;16.85;;;;;;;0.48;65.14;100196.41;5485354;32;34278;-68
2021/12/04 04:20:17;;;;;;;30.63;15.40;;;;;;;-0.18;66.60;100192.97;5478659;32;34471;-67
2021/12/04 04:23:20;;;;;;;35.20;14.23;;;;;;;-0.09;66.20;100191.25;5478907;32;35611;-68
2021/12/04 04:26:23;;;;;;;31.37;16.45;;;;;;;-0.18;66.91;100173.16;5489446;32;35092;-68
2021/12/04 04:29:25;;;;;;;34.77;16.67;;;;;;;0.95;62.90;100183.37;5478459;32;34216;-68
2021/12/04 04:32:28;;;;;;;36.37;16.80;;;;;;;-0.11;65.24;100190.41;5487028;32;33654;-67
2021/12/04 04:35:33;;;;;;;30.70;15.70;;;;;;;0.41;63.95;100192.97;5465744;32;34283;-67
2021/12/04 04:39:12;;;;;;;32.40;15.50;;;;;;;0.66;63.17;100196.41;5498121;32;33704;-68
2021/12/04 05:12:11;;;;;;;39.87;21.10;;;;;;;0.84;62.07;100213.63;5483285;32;34613;-68
2021/12/04 05:15:18;;;;;;;34.27;19.27;;;;;;;-0.23;65.92;100210.19;5504341;32;34090;-67
2021/12/04 05:18:34;;;;;;;38.47;20.83;;;;;;;0.73;62.94;100212.78;5476735;32;34575;-68
2021/12/04 05:21:36;;;;;;;39.83;18.73;;;;;;;-0.09;65.14;100214.50;5486481;32;34076;-68
2021/12/04 05:24:40;;;;;;;36.70;18.63;;;;;;;0.02;66.25;100206.78;5483033;32;35190;-67
2021/12/04 05:27:43;;;;;;;32.95;18.30;;;;;;;-0.41;68.06;100211.00;5465745;32;34634;-69
2021/12/04 05:30:45;;;;;;;37.00;19.20;;;;;;;-0.66;69.86;100203.16;5471243;32;34068;-67
2021/12/04 05:33:48;;;;;;;31.80;17.10;;;;;;;-0.90;70.41;100211.69;5463207;32;34056;-68
2021/12/04 05:36:51;;;;;;;35.03;17.10;;;;;;;-0.48;69.04;100209.25;5484648;32;34889;-68
2021/12/04 05:39:53;;;;;;;33.53;15.67;;;;;;;-0.73;70.83;100205.72;5465634;32;33734;-68
2021/12/04 05:43:01;;;;;;;36.37;17.40;;;;;;;-0.35;69.72;100198.97;5465847;32;33878;-68
2021/12/04 05:46:14;;;;;;;34.37;17.30;;;;;;;-0.65;70.41;100201.44;5483119;32;34672;-69
2021/12/04 05:49:23;;;;;;;32.30;16.83;;;;;;;-0.20;68.81;100198.12;5490555;32;34525;-68
2021/12/04 05:52:51;;;;;;;40.43;17.40;;;;;;;0.10;66.93;100199.87;5475931;32;34815;-67
2021/12/04 05:58:55;;;;;;;36.83;18.73;;;;;;;-0.98;70.27;100191.84;5476382;32;34348;-67
2021/12/04 06:01:58;;;;;;;33.07;17.83;;;;;;;-0.37;67.59;100192.94;5499529;32;33874;-66
2021/12/04 06:05:01;;;;;;;33.77;16.83;;;;;;;-0.23;67.19;100189.53;5463142;32;33731;-68
2021/12/04 06:08:03;;;;;;;37.40;16.33;;;;;;;-0.29;66.72;100190.38;5483234;32;33995;-68
2021/12/04 06:11:06;;;;;;;35.90;17.47;;;;;;;-0.28;67.25;100190.34;5478534;32;33643;-67
2021/12/04 06:14:09;;;;;;;40.97;17.67;;;;;;;-0.58;68.26;100188.59;5498998;32;34087;-69
2021/12/04 06:17:12;;;;;;;36.65;17.95;;;;;;;-0.28;67.38;100190.34;5478913;32;34816;-68
2021/12/04 06:23:37;;;;;;;41.27;17.77;;;;;;;-0.13;64.70;100184.38;5475957;32;34730;-68
2021/12/04 06:26:39;;;;;;;35.50;17.55;;;;;;;0.97;61.83;100165.28;5465090;32;34634;-67
2021/12/04 06:29:42;;;;;;;37.53;17.60;;;;;;;0.82;60.93;100167.03;5498633;32;34701;-68
2021/12/04 06:32:47;;;;;;;;;;;;;;;-0.30;65.35;100176.59;5455003;32;35602;-67
2021/12/04 06:35:50;;;;;;;42.03;17.70;;;;;;;-0.67;67.95;100185.09;5478290;32;34322;-67
2021/12/04 06:38:53;;;;;;;40.00;17.50;;;;;;;-0.78;68.75;100181.62;5498367;32;33891;-68
2021/12/04 06:41:56;;;;;;;36.35;17.83;;;;;;;-0.01;66.13;100175.75;5479249;32;34673;-67
2021/12/04 06:44:58;;;;;;;37.43;16.70;;;;;;;0.18;65.53;100166.28;5469343;32;34451;-68
2021/12/04 06:48:08;;;;;;;37.43;16.97;;;;;;;0.72;63.91;100169.66;5472868;32;33911;-68
2021/12/04 06:51:27;;;;;;;38.17;17.47;;;;;;;1.15;60.51;100162.59;5505134;32;34368;-68
2021/12/04 06:54:39;;;;;;;36.30;17.17;;;;;;;0.23;63.43;100164.56;5495645;32;35771;-68
2021/12/04 06:57:43;;;;;;;33.63;16.77;;;;;;;-0.40;66.00;100168.81;5474753;32;36893;-68
2021/12/04 07:00:46;;;;;;;36.00;16.27;;;;;;;0.38;64.35;100166.25;5499771;32;34001;-67
2021/12/04 07:03:51;;;;;;;34.27;16.33;;;;;;;-0.09;64.85;100173.16;5478368;32;34636;-68
2021/12/04 07:06:54;;;;;;;30.60;16.15;;;;;;;-0.49;66.33;100159.34;5483148;32;34019;-68
2021/12/04 07:09:56;;;;;;;38.03;16.90;;;;;;;0.60;62.00;100149.00;5494327;32;34112;-67
2021/12/04 07:12:59;;;;;;;33.77;17.47;;;;;;;0.03;64.51;100161.97;5492078;32;34284;-67
2021/12/04 07:16:04;;;;;;;36.20;16.92;;;;;;;-0.22;65.27;100144.75;5484300;32;33977;-67
2021/12/04 07:19:08;;;;;;;32.00;15.67;;;;;;;-0.47;65.71;100136.09;5466302;32;34226;-67
2021/12/04 07:22:11;;;;;;;31.20;15.73;;;;;;;0.57;62.33;100148.97;5496665;32;34756;-67
2021/12/04 07:25:14;;;;;;;38.13;16.50;;;;;;;-0.01;64.81;100147.31;5489997;32;34206;-69
2021/12/04 07:28:17;;;;;;;33.43;15.87;;;;;;;1.27;59.50;100130.59;5482034;32;34552;-68
2021/12/04 07:31:19;;;;;;;36.27;16.70;;;;;;;0.34;62.63;100142.16;5477889;32;34057;-70
2021/12/04 07:34:22;;;;;;;30.67;16.17;;;;;;;0.87;61.28;100130.78;5475671;32;35188;-68
2021/12/04 07:37:26;;;;;;;35.40;16.97;;;;;;;0.56;61.19;100137.78;5482772;32;35638;-67
2021/12/04 07:40:29;;;;;;;32.57;15.80;;;;;;;-0.13;63.94;100124.97;5489850;32;33953;-67
2021/12/04 07:43:32;;;;;;;33.57;16.10;;;;;;;-0.04;64.10;100126.66;5499511;32;35215;-67
2021/12/04 07:46:37;;;;;;;35.10;15.40;;;;;;;0.07;63.79;100121.50;5472871;32;33854;-68
2021/12/04 07:49:40;;;;;;;35.60;15.93;;;;;;;0.17;63.74;100124.06;5465458;32;32740;-68
2021/12/04 07:52:44;;;;;;;33.85;16.62;;;;;;;-0.13;64.60;100116.31;5495184;32;34607;-69
2021/12/04 07:55:46;;;;;;;36.47;15.77;;;;;;;0.16;64.05;100105.97;5478773;32;33145;-68
2021/12/04 07:58:49;;;;;;;37.30;16.17;;;;;;;-0.20;65.50;100117.19;5472768;32;36086;-67
2021/12/04 08:01:52;;;;;;;35.83;15.63;;;;;;;-0.24;65.92;100111.19;5479853;32;35379;-68
2021/12/04 08:04:54;;;;;;;36.67;17.07;;;;;;;-0.36;66.15;100117.19;5484267;32;34084;-68
2021/12/04 08:07:57;;;;;;;36.07;16.63;;;;;;;-0.30;65.96;100116.34;5481375;32;33962;-69
2021/12/04 08:11:00;;;;;;;35.73;16.20;;;;;;;0.03;64.56;100120.62;5472524;32;34191;-68
2021/12/04 08:14:02;;;;;;;35.27;17.27;;;;;;;0.23;63.94;100112.84;5488813;32;33907;-68
2021/12/04 08:17:05;;;;;;;42.83;17.58;;;;;;;0.33;64.41;100116.31;5478535;32;34744;-69
2021/12/04 08:20:10;;;;;;;33.20;17.80;;;;;;;0.38;63.24;100111.97;5484653;32;34290;-68
2021/12/04 08:23:12;;;;;;;35.00;15.93;;;;;;;1.02;61.63;100099.66;5491772;32;34216;-69
2021/12/04 08:26:14;;;;;;;30.67;15.70;;;;;;;1.36;58.76;100107.25;5473167;32;34862;-68
2021/12/04 08:29:17;;;;;;;34.13;16.77;;;;;;;1.65;59.04;100111.37;5492256;32;34590;-68
2021/12/04 08:32:23;;;;;;;38.93;16.10;;;;;;;2.06;57.21;100108.44;5487232;32;32377;-68
2021/12/04 08:35:28;;;;;;;37.13;15.60;;;;;;;2.27;56.63;100105.66;5484917;32;34377;-69
2021/12/04 08:38:32;;;;;;;35.37;15.63;;;;;;;2.51;56.64;100101.09;5478821;32;33992;-68
2021/12/04 08:41:35;;;;;;;34.97;17.05;;;;;;;2.66;55.28;100094.00;5483163;32;34273;-68
2021/12/04 08:44:39;;;;;;;29.20;16.42;;;;;;;1.95;57.49;100092.16;5463851;32;34896;-68
2021/12/04 08:47:43;;;;;;;32.63;16.03;;;;;;;2.07;58.43;100092.91;5467296;32;32492;-68
2021/12/04 08:50:45;;;;;;;33.50;15.63;;;;;;;2.84;55.32;100084.28;5489969;32;35494;-68
2021/12/04 08:53:50;;;;;;;27.40;14.03;;;;;;;2.83;55.51;100077.34;5495593;32;35637;-68
2021/12/04 08:56:52;;;;;;;35.13;15.63;;;;;;;2.77;55.27;100080.03;5481728;32;34612;-68
2021/12/04 08:59:55;;;;;;;29.85;14.18;;;;;;;3.53;53.55;100073.78;5464766;32;34158;-68
2021/12/04 09:02:58;;;;;;;36.17;16.07;;;;;;;3.18;53.55;100076.91;5497893;32;35907;-68
2021/12/04 09:06:01;;;;;;;31.47;16.63;;;;;;;2.91;54.83;100084.19;5486755;32;33904;-69
2021/12/04 09:09:06;;;;;;;35.00;16.00;;;;;;;3.05;54.56;100080.56;5491984;32;34309;-68
2021/12/04 09:12:10;;;;;;;32.00;17.47;;;;;;;3.34;53.91;100075.78;5477290;32;35291;-68
2021/12/04 09:15:17;;;;;;;35.20;16.87;;;;;;;3.55;53.51;100073.78;5478298;32;33983;-68
2021/12/04 09:18:19;;;;;;;32.47;16.10;;;;;;;3.00;56.04;100057.22;5488882;32;36288;-68
2021/12/04 09:21:24;;;;;;;30.80;16.37;;;;;;;4.39;52.01;100054.13;5477601;32;33740;-68
2021/12/04 09:24:36;;;;;;;33.87;16.20;;;;;;;4.10;52.57;100050.28;5484405;32;34497;-69
2021/12/04 09:27:55;;;;;;;36.63;17.50;;;;;;;3.62;53.19;100045.06;5478251;32;34522;-69
2021/12/04 09:34:47;;;;;;;29.07;15.27;;;;;;;2.69;57.39;100042.06;5485540;32;34069;-68
2021/12/04 10:21:48;;;;;;;24.75;13.10;;;;;;;5.55;46.59;99976.00;5498802;32;34033;-68
2021/12/04 10:35:31;;;;;;;32.03;12.17;;;;;;;5.27;44.75;99945.41;5480209;32;35580;-69
2021/12/04 10:38:43;;;;;;;23.23;12.15;;;;;;;5.12;45.29;99945.78;5481152;32;33476;-68
2021/12/04 10:41:47;;;;;;;25.23;12.60;;;;;;;4.80;45.85;99929.16;5484803;32;34656;-69
2021/12/04 10:44:53;;;;;;;;;;;;;;;5.15;44.63;99923.13;5493580;32;34170;-69
2021/12/04 10:47:58;;;;;;;26.87;11.87;;;;;;;5.36;44.13;99924.34;5492901;32;34251;-69
2021/12/04 10:51:19;;;;;;;26.27;12.23;;;;;;;5.66;42.92;99908.78;5489534;32;34835;-68
2021/12/04 10:54:27;;;;;;;27.03;13.13;;;;;;;4.24;45.91;99915.63;5482609;32;34253;-69
2021/12/04 11:00:44;;;;;;;21.77;11.17;;;;;;;5.28;43.44;99897.62;5479843;32;34238;-69
2021/12/04 11:04:12;;;;;;;24.13;11.60;;;;;;;5.89;41.59;99888.16;5481236;32;34035;-68
2021/12/04 11:27:29;;;;;;;20.40;9.13;;;;;;;6.30;40.06;99860.03;5494981;32;34096;-69
2021/12/04 11:44:06;;;;;;;16.40;7.73;;;;;;;6.85;36.53;99829.62;5477738;32;34573;-68
2021/12/04 11:47:09;;;;;;;17.43;8.43;;;;;;;7.11;35.02;99823.53;5501173;32;33987;-69
2021/12/04 11:50:16;;;;;;;;;;;;;;;7.07;35.66;99820.16;5491163;32;33579;-67
2021/12/04 11:53:20;;;;;;;15.57;7.43;;;;;;;6.22;36.84;99813.31;5491483;32;34052;-69
2021/12/04 11:56:27;;;;;;;15.13;8.23;;;;;;;7.82;34.07;99796.56;5469097;32;33950;-68
2021/12/04 11:59:32;;;;;;;18.70;8.67;;;;;;;7.79;33.76;99786.25;5479084;32;35169;-68
2021/12/04 12:02:35;;;;;;;17.60;9.03;;;;;;;8.41;32.07;99782.13;5501128;32;33861;-69
2021/12/04 12:05:55;;;;;;;16.87;8.20;;;;;;;10.50;29.72;99764.19;5477637;32;35136;-68
2021/12/04 12:09:16;;;;;;;23.43;11.27;;;;;;;12.28;26.91;99759.22;5472080;32;35442;-68
2021/12/04 12:12:32;;;;;;;17.53;8.57;;;;;;;10.15;29.47;99771.94;5482555;32;35664;-69
2021/12/04 12:15:36;;;;;;;18.37;9.30;;;;;;;9.81;29.83;99762.16;5466173;32;34073;-68
2021/12/04 12:18:55;;;;;;;19.20;9.40;;;;;;;8.64;31.52;99774.22;5502368;32;34105;-67
2021/12/04 12:25:17;;;;;;;20.50;10.10;;;;;;;6.40;37.00;99783.19;5485120;32;35702;-69
2021/12/04 12:32:03;;;;;;;25.93;11.10;;;;;;;5.81;38.87;99777.16;5491805;32;34158;-69
2021/12/04 12:38:33;;;;;;;21.90;11.17;;;;;;;7.26;35.24;99764.63;5493365;32;34089;-68
2021/12/04 12:41:39;;;;;;;27.00;11.80;;;;;;;6.59;36.40;99769.53;5496144;32;34413;-70
2021/12/04 12:44:43;;;;;;;24.20;11.70;;;;;;;5.26;39.26;99774.31;5492491;32;34618;-68
2021/12/04 12:47:51;;;;;;;23.10;11.53;;;;;;;6.07;38.36;99769.44;5490163;32;34417;-68
2021/12/04 12:50:54;;;;;;;25.63;11.73;;;;;;;6.15;39.23;99769.19;5499737;32;35398;-69
2021/12/04 12:53:59;;;;;;;24.80;11.63;;;;;;;6.18;39.44;99745.59;5494087;32;34531;-68
2021/12/04 12:57:14;;;;;;;21.80;10.17;;;;;;;5.36;41.26;99757.56;5498962;32;33899;-68
2021/12/04 13:14:11;;;;;;;17.63;8.17;;;;;;;5.18;41.37;99750.25;5491053;32;34075;-67
2021/12/04 13:17:17;;;;;;;18.93;8.43;;;;;;;4.81;42.24;99745.16;5500740;32;34102;-69
2021/12/04 13:20:21;;;;;;;16.07;6.30;;;;;;;4.59;42.60;99753.50;5477968;32;34131;-68
2021/12/04 13:23:24;;;;;;;13.67;6.33;;;;;;;5.40;40.01;99743.53;5472004;32;34236;-69
2021/12/04 13:26:35;;;;;;;17.73;7.17;;;;;;;5.76;38.88;99745.97;5479639;32;34679;-67
2021/12/04 13:29:56;;;;;;;15.57;7.30;;;;;;;5.71;39.46;99750.47;5492024;32;34532;-69
2021/12/04 13:33:07;;;;;;;15.60;7.87;;;;;;;5.69;40.22;99760.97;5490243;32;34338;-69
2021/12/04 13:36:20;;;;;;;16.50;7.63;;;;;;;4.08;43.95;99760.81;5465952;32;34075;-68
2021/12/04 13:39:23;;;;;;;17.43;8.10;;;;;;;4.84;42.47;99752.91;5484608;32;33952;-70
2021/12/04 13:42:25;;;;;;;26.47;7.83;;;;;;;4.68;42.41;99747.22;5491283;32;33987;-70
2021/12/04 13:45:28;;;;;;;16.43;8.07;;;;;;;5.76;40.02;99730.34;5475054;32;33952;-69
2021/12/04 13:48:33;;;;;;;15.40;7.62;;;;;;;6.18;39.24;99725.59;5470091;32;34678;-69
2021/12/04 13:51:37;;;;;;;19.23;9.47;;;;;;;6.12;39.76;99724.94;5451445;32;34520;-69
2021/12/04 13:54:49;;;;;;;16.67;8.67;;;;;;;6.00;40.38;99734.00;5490637;32;34034;-69
2021/12/04 13:57:52;;;;;;;17.03;9.20;;;;;;;5.67;41.27;99725.41;5483646;32;34042;-70
2021/12/04 14:00:55;;;;;;;19.13;9.47;;;;;;;6.09;40.56;99717.19;5495990;32;34955;-69
2021/12/04 14:04:01;;;;;;;17.50;9.00;;;;;;;5.38;41.66;99708.00;5472648;32;33192;-68
2021/12/04 14:07:03;;;;;;;14.83;8.00;;;;;;;5.52;42.39;99694.56;5492662;32;34319;-69
2021/12/04 14:10:18;;;;;;;17.00;7.93;;;;;;;6.31;39.77;99686.91;5502332;32;35873;-68
2021/12/04 14:13:24;;;;;;;17.00;8.43;;;;;;;6.04;40.51;99683.41;5476778;32;34467;-69
2021/12/04 14:16:27;;;;;;;15.70;8.70;;;;;;;5.80;41.26;99673.75;5485684;32;33413;-69
2021/12/04 14:19:31;;;;;;;17.37;8.17;;;;;;;5.41;42.61;99672.28;5481172;32;32559;-67
2021/12/04 14:22:34;;;;;;;15.87;8.00;;;;;;;5.74;41.88;99651.31;5490141;32;33809;-68
2021/12/04 14:25:43;;;;;;;19.30;8.67;;;;;;;5.30;42.78;99637.88;5483416;32;34048;-68
2021/12/04 14:28:46;;;;;;;18.23;8.53;;;;;;;5.36;42.84;99642.91;5483728;32;34139;-69
2021/12/04 14:31:49;;;;;;;17.53;8.37;;;;;;;5.09;43.89;99635.91;5484316;32;34836;-67
2021/12/04 14:35:00;;;;;;;17.93;8.60;;;;;;;5.41;42.99;99635.81;5476479;32;33959;-69
2021/12/04 14:38:07;;;;;;;15.93;7.90;;;;;;;5.15;43.34;99649.59;5468808;32;34681;-68
2021/12/04 14:41:09;;;;;;;18.90;9.57;;;;;;;4.73;44.64;99651.63;5484765;32;34073;-68
2021/12/04 14:44:12;;;;;;;22.10;9.90;;;;;;;5.00;46.26;99657.81;5479560;32;34225;-69
2021/12/04 14:47:16;;;;;;;28.02;11.32;;;;;;;5.55;45.23;99658.00;5481657;32;35096;-68
2021/12/04 14:50:20;;;;;;;20.90;10.38;;;;;;;5.01;46.95;99662.12;5475285;32;34817;-68
2021/12/04 14:53:23;;;;;;;24.12;10.77;;;;;;;5.12;46.98;99648.81;5508664;32;35300;-68
2021/12/04 14:56:28;;;;;;;22.60;10.80;;;;;;;5.31;46.69;99651.75;5467643;32;33960;-69
2021/12/04 14:59:33;;;;;;;23.70;10.70;;;;;;;5.44;46.13;99647.88;5482910;32;34886;-68
2021/12/04 15:02:36;;;;;;;21.80;10.90;;;;;;;4.82;47.86;99651.37;5502175;32;34000;-69
2021/12/04 15:05:42;;;;;;;23.77;11.48;;;;;;;5.05;47.83;99652.50;5492642;32;34442;-70
2021/12/04 15:08:52;;;;;;;23.77;11.30;;;;;;;4.97;48.18;99657.94;5491252;32;34578;-69
2021/12/04 15:11:54;;;;;;;20.67;10.87;;;;;;;5.36;47.31;99658.53;5483277;32;34276;-69
2021/12/04 15:15:07;;;;;;;23.13;11.57;;;;;;;4.79;49.13;99661.03;5496680;32;34640;-69
2021/12/04 15:18:13;;;;;;;25.08;12.50;;;;;;;5.39;47.30;99660.19;5499805;32;34075;-68
2021/12/04 15:21:18;;;;;;;23.27;11.60;;;;;;;4.84;48.83;99664.38;5493850;32;32935;-70
2021/12/04 15:24:35;;;;;;;23.10;12.43;;;;;;;4.99;48.95;99670.91;5486174;32;34563;-69
2021/12/04 15:27:38;;;;;;;24.83;12.03;;;;;;;4.89;49.27;99686.78;5489679;32;34941;-70
2021/12/04 15:30:49;;;;;;;25.67;14.43;;;;;;;4.82;49.92;99693.03;5487841;32;34142;-69
2021/12/04 15:33:55;;;;;;;24.37;12.70;;;;;;;5.13;48.98;99692.19;5481571;32;34232;-69
2021/12/04 15:37:05;;;;;;;25.07;13.33;;;;;;;5.17;49.29;99686.03;5485186;32;34671;-68
2021/12/04 15:40:35;;;;;;;26.47;14.20;;;;;;;4.48;51.48;99689.59;5486021;32;32501;-69
2021/12/04 15:44:08;;;;;;;29.37;14.70;;;;;;;4.38;52.77;99686.41;5491534;32;34188;-68
2021/12/04 15:53:29;;;;;;;31.27;16.03;;;;;;;4.39;53.24;99701.09;5492629;32;34762;-68
2021/12/04 15:56:44;;;;;;;27.93;14.27;;;;;;;4.49;53.13;99701.72;5489263;32;34012;-69
2021/12/04 15:59:50;;;;;;;29.57;15.40;;;;;;;4.43;53.91;99699.25;5468929;32;34180;-69
2021/12/04 16:02:58;;;;;;;32.30;16.10;;;;;;;4.26;54.35;99697.94;5481123;32;34191;-67
2021/12/04 16:06:01;;;;;;;29.40;16.87;;;;;;;3.37;58.07;99696.50;5473718;32;33484;-68
2021/12/04 16:09:04;;;;;;;31.80;16.43;;;;;;;4.30;54.87;99690.91;5502101;32;34624;-68
2021/12/04 16:12:09;;;;;;;29.87;16.53;;;;;;;3.55;56.49;99679.66;5500495;32;33994;-68
2021/12/04 16:15:16;;;;;;;34.17;16.50;;;;;;;4.01;56.10;99676.03;5478116;32;33880;-68
2021/12/04 16:18:22;;;;;;;32.43;17.13;;;;;;;4.41;54.74;99680.25;5487091;32;33123;-68
2021/12/04 16:21:26;;;;;;;28.37;15.70;;;;;;;4.38;54.71;99678.59;5481586;32;35604;-68
2021/12/04 16:24:30;;;;;;;31.33;16.27;;;;;;;4.54;53.68;99672.09;5492729;32;34005;-69
2021/12/04 16:27:37;;;;;;;30.87;15.93;;;;;;;4.17;55.09;99679.09;5486997;32;33991;-70
2021/12/04 16:31:10;;;;;;;30.93;15.30;;;;;;;4.30;54.78;99677.91;5480842;32;34338;-68
2021/12/04 16:37:40;;;;;;;31.80;14.93;;;;;;;4.25;53.84;99671.94;5484335;32;34054;-70
2021/12/04 16:40:46;;;;;;;32.97;13.83;;;;;;;4.46;53.64;99675.78;5479322;32;34773;-68
2021/12/04 16:43:48;;;;;;;29.80;14.20;;;;;;;3.98;55.13;99663.94;5489183;32;34607;-68
2021/12/04 16:46:52;;;;;;;29.70;13.63;;;;;;;3.92;54.83;99660.63;5463230;32;33963;-69
2021/12/04 16:49:55;;;;;;;;;;;;;;;4.59;53.24;99665.00;5511234;32;34648;-69
2021/12/04 16:56:31;;;;;;;26.37;13.47;;;;;;;4.44;53.75;99654.12;5482358;32;35452;-70
2021/12/04 16:59:35;;;;;;;25.43;13.53;;;;;;;4.35;54.10;99653.47;5485736;32;34288;-70
2021/12/04 17:02:38;;;;;;;25.97;13.07;;;;;;;4.04;55.13;99655.97;5487682;32;34030;-68
2021/12/04 17:05:42;;;;;;;30.40;13.80;;;;;;;3.80;56.04;99646.19;5471843;32;35340;-68
2021/12/04 17:08:44;;;;;;;28.27;12.90;;;;;;;3.62;56.82;99657.84;5490734;32;34165;-68
2021/12/04 17:11:52;;;;;;;26.47;13.83;;;;;;;3.11;58.17;99650.28;5478637;32;34117;-70
2021/12/04 17:14:54;;;;;;;27.60;14.37;;;;;;;3.44;57.97;99640.06;5492789;32;34825;-67
2021/12/04 17:17:57;;;;;;;32.23;14.33;;;;;;;3.48;57.58;99644.31;5480819;32;33865;-68
2021/12/04 17:21:00;;;;;;;28.70;13.93;;;;;;;3.56;57.04;99650.19;5484523;32;35535;-67
2021/12/04 17:24:04;;;;;;;29.47;13.87;;;;;;;3.81;56.73;99653.09;5493020;32;34710;-68